.
WxDataArchive / Data Records for 2008-06-05
2008-06-04 June 2008 2008-06-06

Data Records for Thursday, 05 June 2008

Time	Temp	Chill	HIndex	Humid	Dewpt	 Wind 	HiWind	WindDir	Rain 	Barom 
-----	----	-----	------	-----	-----	------	------	-------	-----	----- 
00:00	73.2	73.2	73.2	83	67.7	0	1	248	0.00	29.679 
00:05	73.2	73.2	73.2	82	67.4	0	0	---	0.00	29.676 
00:10	73.2	73.2	73.2	82	67.4	0	1	248	0.00	29.679 
00:15	73.2	73.2	73.2	83	67.7	0	0	---	0.00	29.678 
00:20	73.2	73.2	73.2	83	67.7	0	0	---	0.00	29.681 
00:25	73.0	73.0	73.0	83	67.5	0	1	248	0.00	29.676 
00:30	73.0	73.0	73.0	83	67.5	0	0	---	0.00	29.678 
00:35	73.0	73.0	73.0	83	67.5	1	2	248	0.00	29.672 
00:40	73.0	73.0	73.0	83	67.5	0	1	248	0.00	29.666 
00:45	73.0	73.0	73.0	83	67.5	0	1	248	0.00	29.673 
00:50	73.0	73.0	73.0	83	67.5	0	4	248	0.00	29.675 
00:55	73.2	73.2	73.2	82	67.4	0	1	112	0.00	29.677 
01:00	73.2	73.2	73.2	82	67.4	0	3	112	0.00	29.676 
01:05	73.2	73.2	73.2	83	67.7	0	1	112	0.00	29.671 
01:10	73.2	73.2	73.2	83	67.7	0	2	112	0.00	29.667 
01:15	73.3	73.3	73.3	83	67.8	0	1	112	0.00	29.670 
01:20	73.2	73.2	73.2	83	67.7	0	0	---	0.00	29.676 
01:25	73.2	73.2	73.2	84	68.1	0	1	112	0.00	29.673 
01:30	73.0	73.0	73.0	84	67.9	0	1	112	0.00	29.674 
01:35	72.8	72.8	72.8	85	68.0	0	1	112	0.00	29.675 
01:40	72.7	72.7	72.7	85	67.9	0	0	---	0.00	29.676 
01:45	72.5	72.5	72.5	86	68.1	0	0	---	0.00	29.680 
01:50	72.5	72.5	72.5	86	68.1	0	0	---	0.00	29.683 
01:55	72.3	72.3	72.3	87	68.2	0	0	---	0.00	29.682 
02:00	72.3	72.3	72.3	87	68.2	0	0	---	0.00	29.685 
02:05	72.3	72.3	72.3	87	68.2	0	0	---	0.00	29.687 
02:10	72.1	72.1	72.1	87	68.0	0	0	---	0.00	29.690 
02:15	72.1	72.1	72.1	88	68.3	0	0	---	0.00	29.703 
02:20	72.1	72.1	72.1	88	68.3	0	0	---	0.00	29.703 
02:25	72.1	72.1	72.1	88	68.3	0	0	---	0.00	29.701 
02:30	72.1	72.1	72.1	89	68.7	0	0	---	0.00	29.703 
02:35	72.1	72.1	72.1	89	68.7	0	0	---	0.00	29.700 
02:40	72.1	72.1	72.1	89	68.7	0	0	---	0.00	29.697 
02:45	72.1	72.1	72.1	90	69.0	0	0	---	0.00	29.697 
02:50	72.0	72.0	72.0	90	68.9	0	0	---	0.00	29.702 
02:55	72.0	72.0	72.0	90	68.9	0	1	112	0.00	29.712 
03:00	72.1	72.1	72.1	90	69.0	0	1	112	0.00	29.712 
03:05	72.1	72.1	72.1	91	69.3	0	2	112	0.00	29.723 
03:10	72.5	72.5	72.5	90	69.4	2	4	112	0.00	29.745 
03:15	72.1	72.1	72.1	88	68.3	5	11	292	0.01	29.754 
03:20	71.1	71.1	71.1	88	67.4	5	11	292	0.01	29.754 
03:25	69.8	69.8	69.8	88	66.1	4	11	270	0.10	29.745 
03:30	68.4	68.4	68.4	88	64.7	2	11	270	0.06	29.726 
03:35	68.4	68.4	68.4	89	65.0	1	2	248	0.00	29.723 
03:40	68.3	68.3	68.3	91	65.6	0	1	248	0.00	29.713 
03:45	68.1	68.1	68.1	92	65.7	1	4	248	0.00	29.728 
03:50	68.1	68.1	68.1	92	65.7	0	1	270	0.00	29.726 
03:55	67.9	67.9	67.9	93	65.8	1	2	270	0.00	29.720 
04:00	67.8	67.8	67.8	93	65.7	0	1	270	0.00	29.714 
04:05	67.6	67.6	67.6	93	65.5	0	1	270	0.00	29.714 
04:10	67.6	67.6	67.6	93	65.5	0	1	270	0.00	29.711 
04:15	67.4	67.4	67.4	94	65.6	0	1	270	0.00	29.722 
04:20	67.4	67.4	67.4	94	65.6	0	1	270	0.00	29.723 
04:25	67.3	67.3	67.3	94	65.5	0	0	---	0.00	29.715 
04:30	67.1	67.1	67.1	94	65.3	0	1	270	0.00	29.709 
04:35	67.1	67.1	67.1	94	65.3	0	1	270	0.00	29.709 
04:40	66.9	66.9	66.9	94	65.1	0	0	---	0.00	29.709 
04:45	67.1	67.1	67.1	95	65.6	0	1	270	0.00	29.711 
04:50	67.3	67.3	67.3	95	65.8	0	1	270	0.00	29.704 
04:55	67.3	67.3	67.3	95	65.8	0	2	270	0.00	29.697 
05:00	67.3	67.3	67.3	95	65.8	0	2	270	0.00	29.700 
05:05	67.4	67.4	67.4	95	65.9	0	2	248	0.00	29.699 
05:10	67.4	67.4	67.4	95	65.9	0	2	248	0.00	29.697 
05:15	67.4	67.4	67.4	95	65.9	0	2	248	0.00	29.695 
05:20	67.4	67.4	67.4	95	65.9	0	2	270	0.00	29.695 
05:25	67.4	67.4	67.4	95	65.9	0	2	270	0.00	29.693 
05:30	67.3	67.3	67.3	95	65.8	0	2	270	0.00	29.693 
05:35	67.3	67.3	67.3	95	65.8	0	1	270	0.00	29.689 
05:40	67.3	67.3	67.3	95	65.8	0	0	---	0.00	29.684 
05:45	67.3	67.3	67.3	95	65.8	0	4	248	0.00	29.684 
05:50	67.4	67.4	67.4	95	65.9	2	6	270	0.00	29.682 
05:55	67.8	67.8	67.8	94	66.0	2	4	248	0.00	29.683 
06:00	68.1	68.1	68.1	94	66.3	1	3	248	0.00	29.689 
06:05	68.3	68.3	68.3	93	66.2	1	4	248	0.00	29.690 
06:10	68.6	68.6	68.6	92	66.2	1	3	248	0.00	29.690 
06:15	68.9	68.9	68.9	92	66.5	1	2	248	0.00	29.701 
06:20	69.3	69.3	69.3	92	66.9	0	2	248	0.00	29.704 
06:25	69.6	69.6	69.6	92	67.2	0	2	248	0.00	29.700 
06:30	69.9	69.9	69.9	92	67.5	0	1	248	0.00	29.702 
06:35	70.4	70.4	70.4	92	68.0	1	3	270	0.00	29.704 
06:40	71.1	71.1	71.1	92	68.7	0	2	270	0.00	29.704 
06:45	71.6	71.6	71.6	91	68.8	0	3	248	0.00	29.703 
06:50	72.1	72.1	72.1	90	69.0	1	4	248	0.00	29.705 
06:55	72.5	72.5	72.5	88	68.7	1	7	248	0.00	29.706 
07:00	73.0	73.0	73.0	88	69.2	1	4	270	0.00	29.704 
07:05	73.3	73.3	73.3	87	69.2	1	4	270	0.00	29.704 
07:10	73.7	73.7	73.7	86	69.2	1	4	248	0.00	29.707 
07:15	74.0	74.0	74.0	86	69.5	2	7	248	0.00	29.706 
07:20	74.4	74.4	74.4	85	69.6	2	5	248	0.00	29.705 
07:25	74.9	74.9	74.9	85	70.1	2	5	315	0.00	29.706 
07:30	75.1	75.1	75.3	83	69.6	2	5	248	0.00	29.705 
07:35	75.1	75.1	75.3	83	69.6	1	6	292	0.00	29.707 
07:40	75.1	75.1	75.3	83	69.6	1	5	248	0.00	29.707 
07:45	75.1	75.1	75.3	83	69.6	2	4	270	0.00	29.708 
07:50	75.1	75.1	75.3	83	69.6	1	6	270	0.00	29.708 
07:55	75.4	75.4	75.8	83	69.9	2	5	248	0.00	29.713 
08:00	75.6	75.6	76.2	82	69.7	2	5	248	0.00	29.709 
08:05	76.0	76.0	76.8	82	70.1	2	6	270	0.00	29.714 
08:10	76.1	76.1	77.1	81	69.8	2	9	248	0.00	29.717 
08:15	76.3	76.3	77.4	81	70.0	2	11	248	0.00	29.719 
08:20	76.5	76.5	77.8	80	69.9	2	7	248	0.00	29.719 
08:25	76.5	76.5	77.8	80	69.9	2	5	248	0.00	29.721 
08:30	76.5	76.5	77.7	81	70.2	2	9	248	0.00	29.722 
08:35	76.7	76.7	78.1	80	70.0	2	7	270	0.00	29.725 
08:40	76.8	76.8	78.2	80	70.1	2	7	270	0.00	29.723 
08:45	77.0	77.0	78.6	80	70.3	1	4	225	0.00	29.728 
08:50	77.2	77.2	78.9	79	70.2	2	6	248	0.00	29.737 
08:55	77.6	77.6	79.6	79	70.6	1	3	248	0.00	29.738 
09:00	77.9	77.9	80.1	78	70.5	2	9	248	0.00	29.738 
09:05	78.5	78.5	81.1	77	70.7	2	5	248	0.00	29.744 
09:10	78.6	78.6	81.2	77	70.8	1	3	248	0.00	29.747 
09:15	78.6	78.6	81.2	77	70.8	2	4	248	0.00	29.745 
09:20	79.4	79.4	82.6	76	71.2	3	10	248	0.00	29.742 
09:25	80.3	80.3	84.0	74	71.2	3	11	248	0.00	29.746 
09:30	80.9	80.9	85.0	73	71.4	3	10	248	0.00	29.741 
09:35	81.2	81.2	85.5	73	71.7	2	5	270	0.00	29.744 
09:40	81.1	81.1	85.2	72	71.2	2	7	248	0.00	29.743 
09:45	80.9	80.9	85.0	73	71.4	2	5	248	0.00	29.749 
09:50	80.9	80.9	85.0	73	71.4	2	6	270	0.00	29.751 
09:55	80.7	80.7	84.6	73	71.2	3	6	270	0.00	29.754 
10:00	80.3	80.3	84.0	74	71.2	2	6	225	0.00	29.752 
10:05	80.3	80.3	84.1	75	71.6	1	4	248	0.00	29.753 
10:10	80.3	80.3	84.0	74	71.2	1	4	248	0.00	29.756 
10:15	80.3	80.3	84.0	74	71.2	1	4	270	0.00	29.758 
10:20	80.5	80.5	84.4	74	71.4	2	9	270	0.00	29.755 
10:25	80.7	80.7	84.7	74	71.6	1	5	270	0.00	29.755 
10:30	80.9	80.9	85.1	74	71.8	1	4	248	0.00	29.758 
10:35	81.1	81.1	85.5	74	72.0	1	3	270	0.00	29.756 
10:40	81.2	81.2	85.5	73	71.7	2	6	248	0.00	29.758 
10:45	81.2	81.2	85.5	73	71.7	1	3	270	0.00	29.764 
10:50	81.4	81.4	85.9	73	71.9	1	10	248	0.00	29.762 
10:55	82.0	82.0	87.1	73	72.5	1	6	248	0.00	29.759 
11:00	82.6	82.6	87.8	71	72.2	2	4	248	0.00	29.761 
11:05	83.4	83.4	89.5	71	73.0	1	3	248	0.01	29.765 
11:10	84.0	84.0	90.2	69	72.7	2	5	248	0.00	29.767 
11:15	84.0	84.0	89.8	68	72.3	2	6	248	0.00	29.772 
11:20	84.0	84.0	89.8	68	72.3	2	6	248	0.00	29.773 
11:25	84.1	84.1	90.0	68	72.4	2	5	270	0.00	29.775 
11:30	84.3	84.3	89.8	66	71.7	2	5	270	0.00	29.775 
11:35	84.5	84.5	90.9	68	72.7	1	3	248	0.00	29.772 
11:40	84.5	84.5	89.9	65	71.4	2	10	248	0.00	29.768 
11:45	84.3	84.3	89.5	65	71.2	2	10	270	0.00	29.775 
11:50	84.1	84.1	89.4	66	71.5	2	7	248	0.00	29.769 
11:55	83.8	83.8	89.1	67	71.6	2	7	248	0.00	29.771 
12:00	84.0	84.0	89.5	67	71.8	2	5	270	0.00	29.770 
12:05	84.3	84.3	89.8	66	71.7	2	4	292	0.00	29.775 
12:10	84.7	84.7	90.3	65	71.6	2	6	292	0.00	29.771 
12:15	84.5	84.5	89.3	63	70.5	2	6	270	0.00	29.773 
12:20	84.1	84.1	89.1	65	71.0	1	4	270	0.00	29.775 
12:25	84.5	84.5	89.6	64	71.0	2	4	270	0.00	29.775 
12:30	84.9	84.9	90.0	63	70.9	2	5	270	0.00	29.774 
12:35	85.5	85.5	90.8	62	71.0	2	4	270	0.00	29.774 
12:40	85.5	85.5	89.8	59	69.5	3	9	270	0.00	29.772 
12:45	85.3	85.3	90.1	61	70.3	3	7	270	0.00	29.775 
12:50	85.3	85.3	89.5	59	69.3	3	9	248	0.00	29.777 
12:55	85.1	85.1	89.1	59	69.1	2	4	248	0.00	29.774 
13:00	85.1	85.1	89.4	60	69.6	3	8	248	0.00	29.775 
13:05	85.7	85.7	90.5	60	70.2	2	7	248	0.00	29.774 
13:10	85.9	85.9	90.2	58	69.4	4	10	270	0.00	29.770 
13:15	86.3	86.3	90.9	58	69.7	3	8	292	0.00	29.772 
13:20	85.7	85.7	89.9	58	69.2	3	9	248	0.00	29.774 
13:25	86.3	86.3	90.9	58	69.7	4	11	248	0.00	29.767 
13:30	87.0	87.0	91.9	57	69.9	3	9	248	0.00	29.764 
13:35	87.2	87.2	91.5	55	69.0	4	9	270	0.00	29.762 
13:40	87.0	87.0	91.9	57	69.9	2	5	248	0.00	29.758 
13:45	87.4	87.4	91.9	55	69.2	2	6	248	0.00	29.751 
13:50	87.2	87.2	91.9	56	69.6	3	6	270	0.00	29.749 
13:55	86.5	86.5	91.3	58	69.9	3	7	270	0.00	29.748 
14:00	86.7	86.7	91.3	57	69.6	3	12	248	0.00	29.744 
14:05	87.4	87.4	92.2	56	69.7	4	9	248	0.00	29.746 
14:10	87.6	87.6	91.8	54	68.9	4	11	270	0.00	29.741 
14:15	87.2	87.2	91.5	55	69.0	3	9	270	0.00	29.740 
14:20	86.7	86.7	91.0	56	69.1	3	14	248	0.00	29.737 
14:25	86.7	86.7	90.6	55	68.6	5	11	270	0.00	29.743 
14:30	86.7	86.7	90.6	55	68.6	4	10	270	0.00	29.741 
14:35	86.7	86.7	90.6	55	68.6	3	10	248	0.00	29.736 
14:40	86.5	86.5	89.9	54	67.8	4	12	248	0.00	29.737 
14:45	86.3	86.3	89.9	55	68.2	5	12	270	0.00	29.738 
14:50	87.0	87.0	91.9	57	69.9	3	11	270	0.00	29.737 
14:55	87.4	87.4	92.2	56	69.7	3	9	270	0.00	29.737 
15:00	87.6	87.6	91.8	54	68.9	4	10	248	0.00	29.738 
15:05	87.4	87.4	91.1	53	68.1	4	10	270	0.00	29.740 
15:10	87.2	87.2	91.1	54	68.5	4	10	248	0.00	29.742 
15:15	87.2	87.2	91.1	54	68.5	3	10	248	0.00	29.744 
15:20	88.0	88.0	92.2	53	68.7	3	7	270	0.00	29.742 
15:25	88.0	88.0	91.8	52	68.1	4	12	270	0.00	29.739 
15:30	87.6	87.6	91.5	53	68.3	5	11	270	0.00	29.738 
15:35	87.8	87.8	91.4	52	67.9	4	12	248	0.00	29.735 
15:40	87.8	87.8	91.8	53	68.5	4	12	270	0.00	29.737 
15:45	87.8	87.8	91.8	53	68.5	3	10	270	0.00	29.735 
15:50	87.4	87.4	91.1	53	68.1	3	8	270	0.00	29.737 
15:55	87.6	87.6	91.1	52	67.8	5	14	248	0.00	29.739 
16:00	87.8	87.8	91.4	52	67.9	4	11	270	0.00	29.741 
16:05	87.8	87.8	91.4	52	67.9	4	7	270	0.00	29.741 
16:10	87.8	87.8	91.4	52	67.9	3	9	248	0.00	29.742 
16:15	88.2	88.2	92.5	53	68.9	3	9	248	0.00	29.744 
16:20	87.8	87.8	91.4	52	67.9	3	10	248	0.00	29.746 
16:25	87.6	87.6	91.8	54	68.9	4	12	248	0.00	29.743 
16:30	87.6	87.6	91.5	53	68.3	4	16	248	0.00	29.749 
16:35	87.4	87.4	91.1	53	68.1	5	16	270	0.00	29.751 
16:40	87.2	87.2	91.1	54	68.5	3	6	270	0.00	29.750 
16:45	87.4	87.4	91.5	54	68.7	3	9	270	0.00	29.747 
16:50	87.8	87.8	92.2	54	69.0	3	10	270	0.00	29.739 
16:55	87.8	87.8	91.8	53	68.5	4	10	248	0.00	29.746 
17:00	88.0	88.0	92.2	53	68.7	3	13	248	0.00	29.749 
17:05	88.0	88.0	92.2	53	68.7	4	12	270	0.00	29.749 
17:10	88.0	88.0	92.2	53	68.7	3	10	248	0.00	29.749 
17:15	87.6	87.6	91.8	54	68.9	3	7	248	0.00	29.747 
17:20	87.6	87.6	91.8	54	68.9	3	7	270	0.00	29.748 
17:25	87.8	87.8	92.2	54	69.0	3	9	248	0.00	29.745 
17:30	88.0	88.0	93.0	55	69.8	2	5	270	0.00	29.745 
17:35	87.4	87.4	91.5	54	68.7	3	9	270	0.00	29.748 
17:40	86.7	86.7	90.3	54	68.0	4	14	248	0.00	29.752 
17:45	86.7	86.7	90.3	54	68.0	2	4	270	0.00	29.752 
17:50	86.7	86.7	90.3	54	68.0	4	7	248	0.00	29.754 
17:55	86.5	86.5	89.9	54	67.8	3	10	248	0.00	29.753 
18:00	86.5	86.5	90.3	55	68.4	2	7	270	0.00	29.753 
18:05	86.7	86.7	90.6	55	68.6	2	5	270	0.00	29.748 
18:10	86.7	86.7	90.6	55	68.6	3	6	270	0.00	29.749 
18:15	86.5	86.5	90.3	55	68.4	3	14	248	0.00	29.751 
18:20	86.5	86.5	91.0	57	69.4	1	5	248	0.00	29.750 
18:25	86.5	86.5	90.3	55	68.4	2	6	248	0.00	29.754 
18:30	86.5	86.5	90.6	56	68.9	2	6	270	0.00	29.756 
18:35	86.5	86.5	90.6	56	68.9	1	4	270	0.00	29.761 
18:40	86.1	86.1	89.6	55	68.0	3	11	248	0.00	29.763 
18:45	86.1	86.1	89.6	55	68.0	2	4	270	0.00	29.765 
18:50	85.9	85.9	89.2	55	67.8	1	4	270	0.00	29.766 
18:55	85.7	85.7	89.2	56	68.2	1	2	225	0.00	29.769 
19:00	85.3	85.3	88.8	57	68.3	2	7	248	0.00	29.771 
19:05	85.1	85.1	88.5	57	68.1	1	5	248	0.00	29.776 
19:10	85.1	85.1	88.5	57	68.1	1	6	248	0.00	29.780 
19:15	85.1	85.1	88.5	57	68.1	2	4	248	0.00	29.780 
19:20	84.7	84.7	88.1	58	68.3	1	3	248	0.00	29.780 
19:25	84.5	84.5	88.1	59	68.6	0	1	248	0.00	29.780 
19:30	84.5	84.5	87.8	58	68.1	1	2	248	0.00	29.780 
19:35	84.3	84.3	87.8	59	68.4	0	1	248	0.00	29.780 
19:40	84.0	84.0	87.5	60	68.6	0	1	248	0.00	29.780 
19:45	83.8	83.8	87.5	61	68.9	0	1	248	0.00	29.781 
19:50	83.6	83.6	87.1	61	68.7	0	3	270	0.00	29.781 
19:55	83.4	83.4	86.8	61	68.5	0	1	270	0.00	29.784 
20:00	83.4	83.4	86.8	61	68.5	1	5	248	0.00	29.791 
20:05	83.4	83.4	86.8	61	68.5	0	1	248	0.00	29.794 
20:10	83.0	83.0	86.4	62	68.6	0	1	248	0.00	29.793 
20:15	82.6	82.6	85.7	62	68.2	0	1	248	0.00	29.793 
20:20	82.2	82.2	85.5	64	68.8	0	1	248	0.00	29.792 
20:25	82.0	82.0	85.2	64	68.6	0	1	248	0.00	29.793 
20:30	81.6	81.6	84.6	64	68.2	0	1	248	0.00	29.796 
20:35	81.4	81.4	84.4	65	68.5	0	0	---	0.00	29.798 
20:40	81.2	81.2	84.1	65	68.3	0	1	248	0.00	29.799 
20:45	81.1	81.1	84.1	66	68.6	0	0	---	0.00	29.802 
20:50	80.7	80.7	83.5	66	68.3	0	0	---	0.00	29.802 
20:55	80.3	80.3	83.0	67	68.3	0	0	---	0.00	29.805 
21:00	80.1	80.1	82.9	68	68.6	0	0	---	0.00	29.807 
21:05	79.8	79.8	82.5	69	68.7	0	0	---	0.00	29.808 
21:10	79.4	79.4	82.0	70	68.7	0	0	---	0.00	29.809 
21:15	79.0	79.0	81.5	71	68.8	0	0	---	0.00	29.813 
21:20	78.6	78.6	81.0	72	68.8	0	0	---	0.00	29.814 
21:25	78.5	78.5	80.8	72	68.7	0	0	---	0.00	29.814 
21:30	78.3	78.3	80.6	73	68.9	0	0	---	0.00	29.815 
21:35	78.1	78.1	80.3	73	68.7	0	0	---	0.00	29.814 
21:40	77.9	77.9	80.0	73	68.5	0	0	---	0.00	29.816 
21:45	77.9	77.9	80.0	73	68.5	0	1	248	0.00	29.821 
21:50	77.7	77.7	79.7	73	68.3	0	1	248	0.00	29.820 
21:55	77.6	77.6	79.6	74	68.6	0	0	---	0.00	29.822 
22:00	77.4	77.4	79.3	75	68.8	0	1	248	0.00	29.826 
22:05	77.2	77.2	79.0	76	69.0	0	0	---	0.00	29.825 
22:10	76.8	76.8	78.4	77	69.0	0	0	---	0.00	29.827 
22:15	76.5	76.5	77.9	77	68.7	0	0	---	0.00	29.827 
22:20	76.3	76.3	77.6	78	68.9	0	0	---	0.00	29.829 
22:25	76.0	76.0	77.1	79	69.0	0	0	---	0.00	29.832 
22:30	75.8	75.8	76.7	80	69.2	0	2	248	0.00	29.838 
22:35	75.8	75.8	76.7	80	69.2	0	0	---	0.00	29.839 
22:40	76.0	76.0	77.0	80	69.4	0	0	---	0.00	29.840 
22:45	76.0	76.0	77.1	79	69.0	0	0	---	0.00	29.839 
22:50	76.1	76.1	77.2	79	69.1	0	1	248	0.00	29.840 
22:55	76.1	76.1	77.2	79	69.1	0	0	---	0.00	29.839 
23:00	76.3	76.3	77.5	79	69.3	0	0	---	0.00	29.843 
23:05	76.1	76.1	77.2	79	69.1	0	0	---	0.00	29.844 
23:10	76.1	76.1	77.2	79	69.1	0	0	---	0.00	29.847 
23:15	76.0	76.0	77.1	79	69.0	0	0	---	0.00	29.846 
23:20	75.8	75.8	76.8	79	68.8	0	1	248	0.00	29.846 
23:25	75.8	75.8	76.7	80	69.2	0	0	---	0.00	29.850 
23:30	75.8	75.8	76.7	80	69.2	0	1	248	0.00	29.853 
23:35	75.6	75.6	76.4	80	69.0	0	0	---	0.00	29.855 
23:40	75.6	75.6	76.4	80	69.0	0	0	---	0.00	29.857 
23:45	75.6	75.6	76.4	80	69.0	0	1	248	0.00	29.852 
23:50	75.4	75.4	76.1	80	68.8	0	0	---	0.00	29.854 
23:55	75.4	75.4	76.1	80	68.8	0	1	248	0.00	29.859 

CoCoRaHS
IN-AL-39
A2 Web Hosting
Creative Commons License
GoDaddy
Look for:

loaded 2017-12-12 07:17:16 • last modified 2010-11-18 10:43:29
Privacy PolicyDisclaimer
• wx.awcolley.com is powered by PmWiki v.2002016 •
• all content (unless otherwise noted) © 2017 A W Colley